createdAt,value
2023-01-21T00:00:38.513Z,98366.28
2023-01-21T00:03:05.103Z,98418.38
2023-01-21T00:05:31.765Z,98359.59
2023-01-21T00:07:58.292Z,98405.72
2023-01-21T00:10:24.852Z,98320.22
2023-01-21T00:12:51.359Z,98363.28
2023-01-21T00:15:17.992Z,98372.81
2023-01-21T00:17:44.575Z,98388.91
2023-01-21T00:20:12.751Z,98398.72
2023-01-21T00:22:39.653Z,98403.59
2023-01-21T00:25:06.831Z,98435.16
2023-01-21T00:27:33.306Z,98416.66
2023-01-21T00:29:59.809Z,98364.66
2023-01-21T00:32:26.391Z,98355.84
2023-01-21T00:34:53.042Z,98403.78
2023-01-21T00:37:19.824Z,98445.84
2023-01-21T00:39:47.346Z,98447.03
2023-01-21T00:42:15.994Z,98421.59
2023-01-21T00:44:42.580Z,98454.75
2023-01-21T00:47:09.131Z,98403.31
2023-01-21T00:49:35.661Z,98455.72
2023-01-21T00:52:02.299Z,98356.22
2023-01-21T00:54:28.861Z,98409.25
2023-01-21T00:56:55.949Z,98466.06
2023-01-21T00:59:22.691Z,98373.63
2023-01-21T01:01:49.299Z,98469.19
2023-01-21T01:04:16.067Z,98425.78
2023-01-21T01:06:43.621Z,98336.03
2023-01-21T01:09:11.196Z,98478.00
2023-01-21T01:11:37.748Z,98418.09
2023-01-21T01:14:05.011Z,98455.44
2023-01-21T01:16:31.531Z,98496.72
2023-01-21T01:18:58.223Z,98450.81
2023-01-21T01:21:24.862Z,98498.22
2023-01-21T01:23:55.747Z,98479.41
2023-01-21T01:26:22.523Z,98381.53
2023-01-21T01:28:49.304Z,98388.69
2023-01-21T01:31:18.308Z,98514.81
2023-01-21T01:33:45.616Z,98442.31
2023-01-21T01:36:19.199Z,98525.59
2023-01-21T01:38:46.523Z,98510.38
2023-01-21T01:41:16.715Z,98503.91
2023-01-21T01:43:58.728Z,98536.47
2023-01-21T01:46:31.376Z,98495.03
2023-01-21T01:49:16.998Z,98386.75
2023-01-21T01:51:53.091Z,98532.47
2023-01-21T01:54:33.745Z,98512.81
2023-01-21T01:57:03.741Z,98477.88
2023-01-21T01:59:31.873Z,98559.44
2023-01-21T02:02:03.382Z,98529.03
2023-01-21T02:04:37.572Z,98565.06
2023-01-21T02:07:04.696Z,98561.22
2023-01-21T02:09:31.236Z,98548.84
2023-01-21T02:12:01.395Z,98565.22
2023-01-21T02:14:30.551Z,98581.03
2023-01-21T02:17:07.245Z,98593.13
2023-01-21T02:19:48.039Z,98474.47
2023-01-21T02:22:43.447Z,98491.66
2023-01-21T02:25:43.245Z,98603.31
2023-01-21T02:28:36.387Z,98605.69
2023-01-21T02:31:09.054Z,98602.78
2023-01-21T02:33:56.148Z,98619.28
2023-01-21T02:36:43.453Z,98621.78
2023-01-21T02:39:25.892Z,98508.69
2023-01-21T02:42:06.034Z,98621.91
2023-01-21T02:44:42.860Z,98602.94
2023-01-21T02:47:19.338Z,98638.56
2023-01-21T02:49:48.575Z,98556.00
2023-01-21T02:52:20.603Z,98650.41
2023-01-21T02:54:53.915Z,98643.25
2023-01-21T02:57:31.095Z,98664.16
2023-01-21T02:59:59.637Z,98599.47
2023-01-21T03:02:54.954Z,98662.09
2023-01-21T03:05:35.030Z,98665.81
2023-01-21T03:08:27.916Z,98663.88
2023-01-21T03:11:15.934Z,98617.22
2023-01-21T03:14:08.339Z,98625.06
2023-01-21T03:16:58.669Z,98644.63
2023-01-21T03:19:32.567Z,98600.28
2023-01-21T03:22:02.420Z,98679.59
2023-01-21T03:24:29.217Z,98609.38
2023-01-21T03:26:59.379Z,98645.31
2023-01-21T03:29:28.810Z,98649.28
2023-01-21T03:31:59.761Z,98663.22
2023-01-21T03:34:29.962Z,98573.03
2023-01-21T03:37:16.026Z,98703.13
2023-01-21T03:40:00.206Z,98700.25
2023-01-21T03:42:27.393Z,98594.22
2023-01-21T03:44:54.606Z,98659.50
2023-01-21T03:47:31.912Z,98714.28
2023-01-21T03:50:04.290Z,98690.16
2023-01-21T03:52:32.167Z,98652.03
2023-01-21T03:54:59.090Z,98639.34
2023-01-21T03:57:25.729Z,98724.03
2023-01-21T03:59:53.354Z,98611.31
2023-01-21T04:02:21.122Z,98708.38
2023-01-21T04:04:48.027Z,98679.44
2023-01-21T04:07:16.254Z,98657.56
2023-01-21T04:09:43.255Z,98732.16
2023-01-21T04:12:09.801Z,98634.09
2023-01-21T04:14:36.389Z,98724.72
2023-01-21T04:17:02.943Z,98691.09
2023-01-21T04:19:29.552Z,98640.09
2023-01-21T04:21:56.103Z,98660.38
2023-01-21T04:24:22.654Z,98757.63
2023-01-21T04:26:49.160Z,98688.88
2023-01-21T04:29:15.771Z,98656.09
2023-01-21T04:31:42.480Z,98736.09
2023-01-21T04:34:09.163Z,98553.50
2023-01-21T04:36:35.839Z,98739.19
2023-01-21T04:39:02.595Z,98714.22
2023-01-21T04:41:29.124Z,98657.50
2023-01-21T04:43:55.709Z,98727.31
2023-01-21T04:46:22.445Z,98636.81
2023-01-21T04:48:49.152Z,98717.59
2023-01-21T04:51:15.632Z,98767.94
2023-01-21T04:53:42.284Z,98674.88
2023-01-21T04:56:08.819Z,98758.59
2023-01-21T04:58:35.392Z,98737.91
2023-01-21T05:01:02.001Z,98666.41
2023-01-21T05:03:28.624Z,98744.56
2023-01-21T05:05:55.130Z,98775.06
2023-01-21T05:08:21.641Z,98686.44
2023-01-21T05:10:48.308Z,98691.72
2023-01-21T05:13:14.815Z,98774.09
2023-01-21T05:15:41.417Z,98740.72
2023-01-21T05:18:08.116Z,98796.19
2023-01-21T05:20:35.136Z,98740.06
2023-01-21T05:23:01.789Z,98705.47
2023-01-21T05:25:28.436Z,98812.16
2023-01-21T05:27:55.739Z,98801.47
2023-01-21T05:30:22.651Z,98815.34
2023-01-21T05:32:53.193Z,98786.00
2023-01-21T05:35:23.989Z,98818.91
2023-01-21T05:37:50.928Z,98809.78
2023-01-21T05:40:18.542Z,98763.03
2023-01-21T05:42:46.349Z,98642.78
2023-01-21T05:45:14.175Z,98821.47
2023-01-21T05:47:41.017Z,98825.41
2023-01-21T05:50:08.751Z,98816.81
2023-01-21T05:52:35.594Z,98851.97
2023-01-21T05:55:03.182Z,98793.13
2023-01-21T05:57:30.680Z,98701.56
2023-01-21T05:59:58.067Z,98866.44
2023-01-21T06:02:25.509Z,98811.06
2023-01-21T06:04:53.470Z,98869.91
2023-01-21T06:07:20.767Z,98697.25
2023-01-21T06:09:47.278Z,98873.44
2023-01-21T06:12:13.831Z,98875.88
2023-01-21T06:14:40.331Z,98787.31
2023-01-21T06:17:07.029Z,98857.94
2023-01-21T06:19:33.665Z,98886.31
2023-01-21T06:22:00.207Z,98863.13
2023-01-21T06:24:28.151Z,98841.31
2023-01-21T06:26:54.834Z,98838.00
2023-01-21T06:29:21.345Z,98700.34
2023-01-21T06:31:47.961Z,98872.38
2023-01-21T06:34:15.064Z,98868.13
2023-01-21T06:36:43.109Z,98812.22
2023-01-21T06:39:11.096Z,98835.06
2023-01-21T06:41:37.672Z,98860.94
2023-01-21T06:44:04.383Z,98814.13
2023-01-21T06:46:31.302Z,98947.13
2023-01-21T06:48:57.862Z,98882.25
2023-01-21T06:51:24.614Z,98877.28
2023-01-21T06:53:51.229Z,98873.50
2023-01-21T06:56:18.003Z,98927.41
2023-01-21T06:58:44.662Z,98932.78
2023-01-21T07:01:12.603Z,98907.59
2023-01-21T07:03:40.584Z,98929.31
2023-01-21T07:06:08.221Z,98861.81
2023-01-21T07:08:35.918Z,98931.59
2023-01-21T07:11:07.395Z,98939.03
2023-01-21T07:13:35.691Z,98801.31
2023-01-21T07:16:06.024Z,98944.97
2023-01-21T07:18:37.511Z,98953.19
2023-01-21T07:21:04.584Z,98873.56
2023-01-21T07:23:31.558Z,98955.06
2023-01-21T07:26:02.773Z,98901.75
2023-01-21T07:28:31.303Z,98901.13
2023-01-21T07:31:02.113Z,98961.25
2023-01-21T07:33:29.403Z,98897.69
2023-01-21T07:35:57.566Z,98981.34
2023-01-21T07:38:25.705Z,98883.28
2023-01-21T07:40:52.449Z,98936.44
2023-01-21T07:43:18.989Z,98911.03
2023-01-21T07:45:46.085Z,98906.84
2023-01-21T07:48:12.862Z,98842.03
2023-01-21T07:50:39.469Z,98981.63
2023-01-21T07:53:06.020Z,98982.31
2023-01-21T07:55:33.259Z,98966.44
2023-01-21T07:57:59.899Z,98993.94
2023-01-21T08:00:29.380Z,98966.84
2023-01-21T08:02:57.155Z,98963.84
2023-01-21T08:05:25.288Z,98994.84
2023-01-21T08:07:52.408Z,98833.16
2023-01-21T08:10:19.883Z,99002.19
2023-01-21T08:12:48.014Z,98973.97
2023-01-21T08:15:16.411Z,98951.03
2023-01-21T08:17:44.775Z,99003.41
2023-01-21T08:20:14.676Z,99008.41
2023-01-21T08:22:41.355Z,98960.78
2023-01-21T08:25:08.302Z,98978.84
2023-01-21T08:27:34.807Z,98967.13
2023-01-21T08:30:01.421Z,98996.22
2023-01-21T08:32:33.429Z,98800.28
2023-01-21T08:35:01.400Z,98984.03
2023-01-21T08:37:31.001Z,99012.53
2023-01-21T08:40:00.118Z,99038.75
2023-01-21T08:42:26.770Z,98915.00
2023-01-21T08:44:54.007Z,99049.94
2023-01-21T08:47:21.011Z,99051.34
2023-01-21T08:49:47.604Z,99054.94
2023-01-21T08:52:14.647Z,98996.28
2023-01-21T08:54:41.413Z,99052.88
2023-01-21T08:57:09.024Z,99008.28
2023-01-21T08:59:35.898Z,98896.28
2023-01-21T09:02:02.462Z,99046.56
2023-01-21T09:04:30.190Z,98935.13
2023-01-21T09:06:57.025Z,99027.03
2023-01-21T09:09:24.429Z,99002.00
2023-01-21T09:11:52.457Z,98918.19
2023-01-21T09:14:20.058Z,99038.22
2023-01-21T09:16:51.539Z,99065.94
2023-01-21T09:19:19.037Z,99019.47
2023-01-21T09:21:45.678Z,99060.53
2023-01-21T09:24:12.476Z,99020.56
2023-01-21T09:26:46.366Z,98952.84
2023-01-21T09:29:13.441Z,99068.28
2023-01-21T09:31:40.124Z,98974.38
2023-01-21T09:34:06.715Z,98985.88
2023-01-21T09:36:35.362Z,99048.97
2023-01-21T09:39:03.120Z,98931.63
2023-01-21T09:41:38.305Z,99052.16
2023-01-21T09:44:16.608Z,99083.50
2023-01-21T09:47:07.525Z,99068.31
2023-01-21T09:49:49.117Z,99087.50
2023-01-21T09:52:24.436Z,99094.75
2023-01-21T09:54:52.571Z,98879.66
2023-01-21T09:57:45.301Z,98921.59
2023-01-21T10:00:29.740Z,99077.66
2023-01-21T10:03:11.157Z,99092.84
2023-01-21T10:05:53.587Z,99020.75
2023-01-21T10:08:43.917Z,99108.03
2023-01-21T10:11:29.383Z,99104.81
2023-01-21T10:14:33.783Z,99106.97
2023-01-21T10:17:21.523Z,99095.09
2023-01-21T10:20:13.429Z,99111.84
2023-01-21T10:22:51.040Z,99108.72
2023-01-21T10:25:30.175Z,99061.66
2023-01-21T10:28:23.132Z,99111.09
2023-01-21T10:30:53.357Z,99085.38
2023-01-21T10:33:26.175Z,99105.88
2023-01-21T10:36:22.122Z,99101.72
2023-01-21T10:38:52.147Z,99108.03
2023-01-21T10:41:58.261Z,99099.44
2023-01-21T10:44:34.024Z,99072.22
2023-01-21T10:47:14.578Z,99102.56
2023-01-21T10:50:02.816Z,99064.97
2023-01-21T10:52:34.102Z,99095.22
2023-01-21T10:55:05.131Z,99031.19
2023-01-21T10:58:03.014Z,99040.91
2023-01-21T11:00:36.337Z,99013.88
2023-01-21T11:03:19.602Z,99024.91
2023-01-21T11:05:50.072Z,99020.28
2023-01-21T11:08:22.658Z,99092.03
2023-01-21T11:10:55.785Z,99102.13
2023-01-21T11:13:24.109Z,99100.22
2023-01-21T11:15:53.825Z,99095.22
2023-01-21T11:18:35.737Z,99074.59
2023-01-21T11:21:19.061Z,99100.44
2023-01-21T11:24:03.689Z,99094.97
2023-01-21T11:26:36.122Z,99092.81
2023-01-21T11:29:18.068Z,98975.22
2023-01-21T11:31:48.648Z,99040.66
2023-01-21T11:34:23.152Z,99096.59
2023-01-21T11:36:59.002Z,98984.69
2023-01-21T11:39:29.463Z,99081.94
2023-01-21T11:42:05.875Z,99095.38
2023-01-21T11:44:34.985Z,99048.34
2023-01-21T11:47:37.943Z,99103.16
2023-01-21T11:50:19.290Z,99093.09
2023-01-21T11:52:47.531Z,99081.94
2023-01-21T11:55:21.779Z,99096.66
2023-01-21T11:57:53.696Z,99091.16
2023-01-21T12:00:28.562Z,99100.91
2023-01-21T12:03:02.190Z,98978.25
2023-01-21T12:05:33.617Z,99098.31
2023-01-21T12:08:01.157Z,99027.19
2023-01-21T12:10:33.485Z,99103.13
2023-01-21T12:13:15.175Z,99097.59
2023-01-21T12:16:07.846Z,99096.38
2023-01-21T12:18:43.129Z,99113.84
2023-01-21T12:21:38.161Z,99099.00
2023-01-21T12:24:35.825Z,99093.72
2023-01-21T12:27:35.054Z,99095.81
2023-01-21T12:30:34.157Z,99089.13
2023-01-21T12:33:17.898Z,99089.22
2023-01-21T12:36:36.356Z,99095.00
2023-01-21T12:39:16.945Z,99024.56
2023-01-21T12:41:51.154Z,98985.31
2023-01-21T12:44:42.230Z,99099.25
2023-01-21T12:47:21.236Z,98989.03
2023-01-21T12:50:11.166Z,99048.00
2023-01-21T12:52:48.626Z,99065.09
2023-01-21T12:55:24.354Z,99099.16
2023-01-21T12:58:05.373Z,98986.28
2023-01-21T13:00:40.204Z,99064.66
2023-01-21T13:03:10.142Z,99098.22
2023-01-21T13:06:08.775Z,99106.59
2023-01-21T13:08:54.644Z,99024.00
2023-01-21T13:11:39.229Z,98934.59
2023-01-21T13:14:09.976Z,99112.28
2023-01-21T13:16:46.473Z,99063.59
2023-01-21T13:19:15.959Z,98913.47
2023-01-21T13:22:02.231Z,99102.84
2023-01-21T13:24:34.406Z,99081.34
2023-01-21T13:27:20.113Z,99107.34
2023-01-21T13:30:01.923Z,99115.31
2023-01-21T13:32:42.440Z,99105.31
2023-01-21T13:35:23.555Z,99113.75
2023-01-21T13:38:00.192Z,99082.03
2023-01-21T13:40:39.453Z,99127.84
2023-01-21T13:43:54.574Z,99129.94
2023-01-21T13:46:47.445Z,99088.88
2023-01-21T13:49:34.537Z,99133.56
2023-01-21T13:52:22.878Z,99127.19
2023-01-21T13:55:08.392Z,99110.66
2023-01-21T13:58:24.584Z,99132.50
2023-01-21T14:01:06.836Z,99131.78
2023-01-21T14:03:51.889Z,99056.69
2023-01-21T14:06:38.952Z,99129.09
2023-01-21T14:09:24.636Z,99121.84
2023-01-21T14:12:09.440Z,99108.94
2023-01-21T14:14:53.769Z,99136.06
2023-01-21T14:17:34.113Z,99143.97
2023-01-21T14:20:15.157Z,99126.97
2023-01-21T14:23:00.249Z,99120.28
2023-01-21T14:26:08.863Z,99095.97
2023-01-21T14:29:18.158Z,99129.09
2023-01-21T14:31:51.029Z,99117.50
2023-01-21T14:34:55.951Z,99125.31
2023-01-21T14:37:38.655Z,99106.44
2023-01-21T14:40:17.297Z,99018.31
2023-01-21T14:42:49.951Z,99132.00
2023-01-21T14:45:22.527Z,99086.88
2023-01-21T14:47:54.348Z,99138.13
2023-01-21T14:50:54.787Z,99133.63
2023-01-21T14:53:26.402Z,99141.66
2023-01-21T14:56:07.139Z,99144.53
2023-01-21T14:58:37.271Z,99138.56
2023-01-21T15:01:07.454Z,98924.94
2023-01-21T15:03:48.081Z,98995.94
2023-01-21T15:06:23.796Z,99137.94
2023-01-21T15:08:57.798Z,99054.63
2023-01-21T15:11:39.944Z,99139.78
2023-01-21T15:14:33.270Z,99144.59
2023-01-21T15:17:03.058Z,99097.13
2023-01-21T15:19:35.334Z,99115.34
2023-01-21T15:22:17.844Z,99147.44
2023-01-21T15:25:02.128Z,99053.88
2023-01-21T15:27:32.881Z,99146.38
2023-01-21T15:30:02.422Z,99153.13
2023-01-21T15:32:32.198Z,99151.94
2023-01-21T15:35:05.531Z,99155.41
2023-01-21T15:37:36.502Z,98909.47
2023-01-21T15:40:16.990Z,99083.72
2023-01-21T15:43:03.358Z,99156.47
2023-01-21T15:45:45.900Z,99172.63
2023-01-21T15:48:41.198Z,99136.50
2023-01-21T15:51:31.515Z,99175.94
2023-01-21T15:54:28.971Z,99174.03
2023-01-21T15:56:58.526Z,99172.13
2023-01-21T16:00:23.938Z,99146.47
2023-01-21T16:02:58.187Z,99168.31
2023-01-21T16:05:46.683Z,99181.03
2023-01-21T16:08:51.698Z,99170.94
2023-01-21T16:11:43.570Z,99179.25
2023-01-21T16:14:31.793Z,99186.84
2023-01-21T16:17:50.496Z,99125.38
2023-01-21T16:20:21.201Z,99187.56
2023-01-21T16:22:52.824Z,99127.25
2023-01-21T16:25:24.614Z,99079.66
2023-01-21T16:28:03.715Z,99156.09
2023-01-21T16:30:32.286Z,99171.75
2023-01-21T16:33:13.841Z,99122.50
2023-01-21T16:35:53.085Z,99189.19
2023-01-21T16:38:25.395Z,99119.44
2023-01-21T16:41:12.544Z,99160.94
2023-01-21T16:44:00.085Z,99176.84
2023-01-21T16:46:41.216Z,99160.00
2023-01-21T16:49:15.995Z,99160.00
2023-01-21T16:51:55.028Z,99184.34
2023-01-21T16:54:32.263Z,99035.91
2023-01-21T16:57:21.276Z,99117.28
2023-01-21T16:59:50.084Z,99210.72
2023-01-21T17:02:26.990Z,99195.06
2023-01-21T17:05:00.014Z,99164.91
2023-01-21T17:07:35.149Z,99190.16
2023-01-21T17:10:06.265Z,99193.97
2023-01-21T17:12:36.311Z,99057.63
2023-01-21T17:15:18.245Z,99167.03
2023-01-21T17:17:48.916Z,99177.59
2023-01-21T17:20:32.777Z,99161.69
2023-01-21T17:23:09.537Z,99161.94
2023-01-21T17:25:37.102Z,99173.09
2023-01-21T17:28:28.583Z,99201.47
2023-01-21T17:31:13.988Z,99202.53
2023-01-21T17:33:42.166Z,99160.41
2023-01-21T17:36:13.636Z,99189.25
2023-01-21T17:38:42.709Z,99206.34
2023-01-21T17:41:33.535Z,99201.81
2023-01-21T17:44:14.584Z,99211.19
2023-01-21T17:46:50.225Z,99210.94
2023-01-21T17:49:24.852Z,99195.88
2023-01-21T17:51:55.511Z,99208.09
2023-01-21T17:54:24.782Z,99210.59
2023-01-21T17:56:57.307Z,99183.75
2023-01-21T17:59:31.524Z,99211.06
2023-01-21T18:01:58.275Z,99224.38
2023-01-21T18:04:24.826Z,99209.78
2023-01-21T18:06:53.441Z,99195.03
2023-01-21T18:09:22.500Z,99207.94
2023-01-21T18:11:53.946Z,99146.97
2023-01-21T18:14:25.352Z,99194.91
2023-01-21T18:16:55.879Z,99108.16
2023-01-21T18:19:32.014Z,99211.78
2023-01-21T18:22:02.142Z,99197.06
2023-01-21T18:24:33.365Z,99159.78
2023-01-21T18:27:01.862Z,99152.41
2023-01-21T18:29:31.230Z,99207.19
2023-01-21T18:31:59.158Z,99232.16
2023-01-21T18:34:29.161Z,99134.84
2023-01-21T18:36:57.695Z,99221.72
2023-01-21T18:39:26.825Z,99131.16
2023-01-21T18:41:56.594Z,99212.44
2023-01-21T18:44:24.282Z,99167.66
2023-01-21T18:46:52.450Z,99222.13
2023-01-21T18:49:25.997Z,99211.78
2023-01-21T18:51:55.733Z,99141.13
2023-01-21T18:54:22.235Z,99216.34
2023-01-21T18:56:49.454Z,99213.38
2023-01-21T18:59:18.154Z,99212.94
2023-01-21T19:01:45.302Z,99142.88
2023-01-21T19:04:18.976Z,99173.28
2023-01-21T19:06:47.785Z,99197.09
2023-01-21T19:09:23.437Z,99199.50
2023-01-21T19:11:50.705Z,99144.69
2023-01-21T19:14:17.840Z,99208.00
2023-01-21T19:16:44.834Z,99058.13
2023-01-21T19:19:16.661Z,99213.25
2023-01-21T19:21:43.322Z,99230.41
2023-01-21T19:24:12.084Z,99159.22
2023-01-21T19:26:40.380Z,99217.97
2023-01-21T19:29:15.539Z,99146.00
2023-01-21T19:31:42.625Z,99216.47
2023-01-21T19:34:10.311Z,99188.25
2023-01-21T19:36:36.994Z,99157.16
2023-01-21T19:39:03.723Z,99176.97
2023-01-21T19:41:30.235Z,99145.78
2023-01-21T19:43:56.909Z,99228.72
2023-01-21T19:46:24.038Z,99217.50
2023-01-21T19:48:53.418Z,99162.09
2023-01-21T19:51:20.003Z,99106.59
2023-01-21T19:53:46.569Z,99172.06
2023-01-21T19:56:18.576Z,99179.66
2023-01-21T19:58:48.500Z,99164.03
2023-01-21T20:01:15.081Z,99211.00
2023-01-21T20:03:54.664Z,99080.97
2023-01-21T20:06:26.426Z,99222.34
2023-01-21T20:08:53.171Z,99229.97
2023-01-21T20:11:19.700Z,99179.97
2023-01-21T20:13:46.263Z,99150.88
2023-01-21T20:16:18.714Z,99182.38
2023-01-21T20:18:46.189Z,99180.97
2023-01-21T20:21:12.905Z,99139.19
2023-01-21T20:23:39.474Z,99175.47
2023-01-21T20:26:16.248Z,99177.63
2023-01-21T20:28:47.719Z,99214.47
2023-01-21T20:31:14.505Z,99196.56
2023-01-21T20:33:42.514Z,99208.53
2023-01-21T20:36:18.228Z,99206.00
2023-01-21T20:38:45.346Z,99138.19
2023-01-21T20:41:13.486Z,99188.00
2023-01-21T20:43:40.752Z,99191.31
2023-01-21T20:46:14.913Z,99033.38
2023-01-21T20:48:43.683Z,99226.59
2023-01-21T20:51:10.720Z,99060.44
2023-01-21T20:53:38.205Z,99216.22
2023-01-21T20:56:16.539Z,99165.41
2023-01-21T20:58:44.989Z,99111.94
2023-01-21T21:03:44.189Z,99141.34
2023-01-21T21:06:15.680Z,99106.38
2023-01-21T21:08:42.764Z,99198.53
2023-01-21T21:11:10.055Z,99132.97
2023-01-21T21:13:37.090Z,99035.75
2023-01-21T21:16:16.746Z,99175.63
2023-01-21T21:18:43.284Z,99183.44
2023-01-21T21:21:12.231Z,99032.38
2023-01-21T21:23:38.725Z,99080.72
2023-01-21T21:26:15.273Z,99169.72
2023-01-21T21:28:41.805Z,99139.00
2023-01-21T21:31:12.228Z,99115.53
2023-01-21T21:33:38.872Z,99172.19
2023-01-21T21:36:06.056Z,99143.13
2023-01-21T21:38:32.661Z,99093.50
2023-01-21T21:41:19.094Z,99099.81
2023-01-21T21:43:45.588Z,99138.69
2023-01-21T21:46:31.295Z,99091.38
2023-01-21T21:48:57.851Z,99168.81
2023-01-21T21:51:24.648Z,99118.44
2023-01-21T21:53:51.425Z,99035.66
2023-01-21T21:56:21.102Z,99160.56
2023-01-21T21:58:48.681Z,99139.38
2023-01-21T22:01:25.081Z,99163.34
2023-01-21T22:03:52.271Z,99088.50
2023-01-21T22:06:20.698Z,99056.84
2023-01-21T22:08:47.537Z,99158.00
2023-01-21T22:11:18.390Z,99098.44
2023-01-21T22:13:50.119Z,99075.53
2023-01-21T22:16:28.703Z,99142.72
2023-01-21T22:18:56.891Z,99146.72
2023-01-21T22:21:26.160Z,99073.41
2023-01-21T22:23:53.847Z,99141.94
2023-01-21T22:26:22.707Z,99138.94
2023-01-21T22:28:53.380Z,99147.66
2023-01-21T22:31:23.606Z,99149.75
2023-01-21T22:33:50.782Z,99094.53
2023-01-21T22:36:19.465Z,99116.38
2023-01-21T22:38:46.566Z,99145.75
2023-01-21T22:41:15.294Z,99131.94
2023-01-21T22:43:44.840Z,98954.66
2023-01-21T22:46:14.312Z,99127.91
2023-01-21T22:48:42.118Z,99135.81
2023-01-21T22:51:12.480Z,98976.28
2023-01-21T22:53:43.936Z,99015.72
2023-01-21T22:56:12.477Z,99051.81
2023-01-21T22:58:39.085Z,99097.00
2023-01-21T23:01:07.497Z,99108.22
2023-01-21T23:03:34.136Z,99012.91
2023-01-21T23:06:05.634Z,98991.84
2023-01-21T23:08:32.285Z,99074.78
2023-01-21T23:11:07.138Z,99088.19
2023-01-21T23:13:34.550Z,99011.78
2023-01-21T23:16:01.259Z,99007.25
2023-01-21T23:18:29.124Z,99049.78
2023-01-21T23:20:56.371Z,99067.22
2023-01-21T23:23:24.685Z,99036.38
2023-01-21T23:25:51.352Z,99108.94
2023-01-21T23:28:17.861Z,99008.78
2023-01-21T23:30:44.515Z,99080.91
2023-01-21T23:33:11.893Z,99039.53
2023-01-21T23:35:38.375Z,99045.75
2023-01-21T23:38:05.064Z,99036.47
2023-01-21T23:40:31.541Z,99071.63
2023-01-21T23:42:58.097Z,99047.88
2023-01-21T23:45:24.602Z,99085.25
2023-01-21T23:47:51.225Z,99057.13
2023-01-21T23:50:18.995Z,99070.13
2023-01-21T23:52:45.825Z,99078.41
2023-01-21T23:55:12.757Z,98916.53
2023-01-21T23:57:39.246Z,98965.97
